Pagina principale
METAR-TAF:

METAR-TAF

Aeroporti :

Aeroporto di Costanza-Mihail Kogălniceanu

Costanza, Romania

latitudine: 44-20N, longitudine: 028-26E, altezza: 97 m

Osservazione

Il bollettino è stato emesso 40 minuti fa, alle 00:30 UTC
Vento 6 kt da nord-est
Temperature 20°C
Umidità 64%
Pressione 1020 hPa
Visibilità 10 km o più
nessuna nube inferiore a 1500 m e nessun cumulonembo

METAR: LRCK 210030Z 04006KT CAVOK 20/13 Q1020 NOSIG

Ora: 04:10 (01:10 UTC)

Previsione

Il bollettino è stato emesso 2 ore e 10 minuti fa, alle 23:00 UTC
Previsione valida dal 21 alle 00 UTC al 22 alle 00 UTC
Vento 10 kt da nord/nord-est
Visibilità 10 km o più
nessuna nube inferiore a 1500 m e nessun cumulonembo
Evoluzione graduale
dal 21 alle 12 UTC al 21 alle 14 UTC
Vento 10 kt da sud-est
Evoluzione graduale
dal 21 alle 19 UTC al 21 alle 21 UTC
Vento 3 kt da direzioni variabili

TAF: LRCK 202300Z 2100/2200 03010KT CAVOK BECMG 2112/2114 14010KT BECMG 2119/2121 VRB03KT

Osservazioni e previsioni meteorologiche di più di 4000 aeroporti (messaggi METAR e TAF).

Le stazioni disponibili sono rappresentate dai dischi gialli e rossi sulla carta.

Puntare il mouse per vedere il nome della stazione.

Clicca sopra per visualizzare le osservazioni e previsioni meteorologiche.

Per cambiare la mappa : fare clic sui pulsanti verdi con una croce nera per ingrandire, il pulsante verde con un trattino per diminuire, o sulla freccia verde per le mappe adiacenti.


METAR-TAF: